Terminal Aerodrome Forecast
Issued by NWS

Home | Current Version | Previous Version | Text Only | Print | Product List | Glossary On
Versions: 1 2 3 4 5 6 7 8 9 10 11 12 13 14 15 16 17
001
FTUS46 KSGX 231134
TAFSNA
TAF
KSNA 231134Z 2312/2412 VRB03KT P6SM OVC008
     FM231630 VRB04KT P6SM SCT010
     FM231800 22009KT P6SM SKC
     FM240300 20005KT P6SM SCT010
     FM240500 VRB04KT P6SM OVC010=

USA.gov is the U.S. government's official web portal to all federal, state and local government web resources and services.